Time;durP1;ratioP1;P1;durP2;ratioP2;P2;SDS_P1;SDS_P2;PMS_P1;PMS_P2;Temp;Humidity;BMP_temperature;BMP_pressure;BME280_temperature;BME280_humidity;BME280_pressure;Samples;Min_cycle;Max_cycle;Signal;HPM_P1;HPM_P2
2022/11/14 00:00:55;;;;;;;4.00;1.38;;;14.90;93.60;;;;;;4226103;28;20290;-65
2022/11/14 00:03:54;;;;;;;0.00;0.00;;;14.90;93.70;;;;;;4242227;27;20062;-65
2022/11/14 00:06:55;;;;;;;0.10;0.10;;;14.80;93.60;;;;;;4211023;28;20115;-63
2022/11/14 00:09:54;;;;;;;0.00;0.00;;;14.90;93.70;;;;;;4242501;27;20107;-65
2022/11/14 00:12:54;;;;;;;0.10;0.10;;;14.90;93.50;;;;;;4242532;27;20062;-65
2022/11/14 00:15:54;;;;;;;0.47;0.47;;;14.80;93.80;;;;;;4242142;27;20509;-65
2022/11/14 00:18:53;;;;;;;0.00;0.00;;;14.90;93.90;;;;;;4225104;27;20139;-65
2022/11/14 00:21:54;;;;;;;0.10;0.10;;;14.90;94.00;;;;;;4208002;28;20137;-65
2022/11/14 00:24:54;;;;;;;0.00;0.00;;;14.80;94.00;;;;;;4225289;27;20062;-65
2022/11/14 00:27:56;;;;;;;0.30;0.30;;;14.80;94.00;;;;;;4233610;27;20152;-65
2022/11/14 00:30:55;;;;;;;;;;;14.80;94.00;;;;;;4226152;28;20086;-65
2022/11/14 00:33:54;;;;;;;0.10;0.10;;;14.80;94.00;;;;;;4241608;27;19973;-65
2022/11/14 00:36:55;;;;;;;0.38;0.38;;;14.80;94.00;;;;;;4224908;28;20108;-65
2022/11/14 00:39:55;;;;;;;0.10;0.10;;;14.80;94.00;;;;;;4224801;27;20046;-65
2022/11/14 00:42:54;;;;;;;0.00;0.00;;;14.80;94.00;;;;;;4223618;28;20410;-66
2022/11/14 00:45:54;;;;;;;0.00;0.00;;;14.80;94.00;;;;;;4224659;28;20378;-65
2022/11/14 00:48:53;;;;;;;1.75;1.65;;;14.80;93.90;;;;;;4225169;28;20093;-65
2022/11/14 00:51:54;;;;;;;0.05;0.05;;;14.80;93.70;;;;;;4241840;28;20103;-65
2022/11/14 00:54:54;;;;;;;0.93;0.93;;;14.80;93.80;;;;;;4241628;28;20058;-65
2022/11/14 00:57:53;;;;;;;0.43;0.43;;;14.80;93.90;;;;;;4240448;28;20095;-63
2022/11/14 01:00:53;;;;;;;0.22;0.22;;;14.80;94.00;;;;;;4241167;28;20473;-65
2022/11/14 01:03:53;;;;;;;0.73;0.73;;;14.80;94.00;;;;;;4231200;27;20184;-65
2022/11/14 01:06:52;;;;;;;0.00;0.00;;;14.80;94.00;;;;;;4241469;27;20531;-64
2022/11/14 01:09:53;;;;;;;0.00;0.00;;;14.70;94.10;;;;;;4225153;28;20467;-64
2022/11/14 01:12:52;;;;;;;0.10;0.10;;;14.70;94.10;;;;;;4244065;27;20058;-64
2022/11/14 01:15:53;;;;;;;0.00;0.00;;;14.80;94.10;;;;;;4227904;27;20050;-64
2022/11/14 01:18:53;;;;;;;0.10;0.10;;;14.80;94.00;;;;;;4227856;27;20816;-64
2022/11/14 01:21:52;;;;;;;0.00;0.00;;;14.80;94.00;;;;;;4227720;27;20046;-64
2022/11/14 01:24:54;;;;;;;0.00;0.00;;;14.70;93.90;;;;;;4227953;27;20054;-64
2022/11/14 01:27:53;;;;;;;0.00;0.00;;;14.70;93.90;;;;;;4218032;28;20508;-64
2022/11/14 01:30:53;;;;;;;0.03;0.03;;;14.70;93.90;;;;;;4244758;27;20115;-64
2022/11/14 01:33:53;;;;;;;0.05;0.05;;;14.70;93.90;;;;;;4244459;27;20054;-64
2022/11/14 01:36:53;;;;;;;0.05;0.05;;;14.70;94.00;;;;;;4244434;27;20142;-64
2022/11/14 01:39:54;;;;;;;0.52;0.52;;;14.70;94.10;;;;;;4227903;28;20067;-64
2022/11/14 01:43:22;;;;;;;0.20;0.20;;;14.70;94.00;;;;;;4245207;27;20505;-64
2022/11/14 01:46:26;;;;;;;0.73;0.73;;;14.70;93.90;;;;;;4227886;28;21348;-64
2022/11/14 01:49:32;;;;;;;0.00;0.00;;;14.70;93.90;;;;;;4214902;27;20067;-65
2022/11/14 01:52:35;;;;;;;0.10;0.10;;;14.70;93.90;;;;;;4227170;27;20562;-66
2022/11/14 01:55:36;;;;;;;0.00;0.00;;;14.70;93.90;;;;;;4227173;27;20112;-64
2022/11/14 01:58:38;;;;;;;0.00;0.00;;;14.60;93.90;;;;;;4233909;27;20046;-65
2022/11/14 02:01:42;;;;;;;0.22;0.22;;;14.70;93.90;;;;;;4261546;27;20058;-64
2022/11/14 02:04:46;;;;;;;0.08;0.08;;;14.60;94.00;;;;;;4233374;27;20203;-64
2022/11/14 02:07:46;;;;;;;0.30;0.30;;;14.70;93.90;;;;;;4210526;28;20055;-64
2022/11/14 02:10:47;;;;;;;0.20;0.20;;;14.60;94.00;;;;;;4213848;27;20061;-64
2022/11/14 02:13:46;;;;;;;0.03;0.03;;;14.60;94.00;;;;;;4236707;27;20058;-64
2022/11/14 02:16:46;;;;;;;0.00;0.00;;;14.60;94.00;;;;;;4256847;27;20050;-64
2022/11/14 02:20:21;;;;;;;0.98;0.98;;;14.60;94.00;;;;;;4243015;27;20088;-64
2022/11/14 02:23:28;;;;;;;0.70;0.68;;;14.60;94.00;;;;;;4228713;27;20070;-64
2022/11/14 02:26:28;;;;;;;0.90;0.90;;;14.60;93.90;;;;;;4227382;27;20082;-64
2022/11/14 02:29:33;;;;;;;0.00;0.00;;;14.60;94.00;;;;;;4241918;27;20135;-64
2022/11/14 02:32:32;;;;;;;1.75;1.65;;;14.60;94.10;;;;;;4243421;27;20732;-63
2022/11/14 02:35:53;;;;;;;1.80;1.70;;;14.60;94.10;;;;;;4225808;28;20074;-65
2022/11/14 02:38:52;;;;;;;2.78;0.85;;;14.50;94.10;;;;;;4237706;27;20207;-64
2022/11/14 02:41:52;;;;;;;0.30;0.30;;;14.60;94.20;;;;;;4228428;27;20537;-64
2022/11/14 02:44:51;;;;;;;1.45;1.35;;;14.60;94.20;;;;;;4243792;27;20042;-64
2022/11/14 02:47:51;;;;;;;0.60;0.60;;;14.60;94.20;;;;;;4238748;27;20074;-64
2022/11/14 02:50:52;;;;;;;1.45;0.57;;;14.60;94.10;;;;;;4243380;27;20103;-64
2022/11/14 02:53:52;;;;;;;0.07;0.07;;;14.60;94.10;;;;;;4243460;27;20130;-64
2022/11/14 02:56:51;;;;;;;1.30;1.30;;;14.60;94.10;;;;;;4243344;27;20304;-64
2022/11/14 02:59:51;;;;;;;0.40;0.40;;;14.50;94.10;;;;;;4226481;27;20054;-64
2022/11/14 03:02:52;;;;;;;0.08;0.08;;;14.50;93.90;;;;;;4235650;27;20050;-64
2022/11/14 03:05:53;;;;;;;0.75;0.75;;;14.50;93.90;;;;;;4225303;28;20058;-64
2022/11/14 03:08:52;;;;;;;0.17;0.17;;;14.50;93.90;;;;;;4239604;27;20084;-64
2022/11/14 03:11:52;;;;;;;0.00;0.00;;;14.50;94.30;;;;;;4226426;27;20070;-64
2022/11/14 03:14:52;;;;;;;0.75;0.75;;;14.50;94.00;;;;;;4211369;28;20547;-65
2022/11/14 03:17:52;;;;;;;0.30;0.30;;;14.50;94.00;;;;;;4226840;27;20497;-64
2022/11/14 03:20:52;;;;;;;0.88;0.88;;;14.50;94.10;;;;;;4239843;27;20050;-64
2022/11/14 03:23:52;;;;;;;1.38;1.27;;;14.50;93.90;;;;;;4236173;27;20770;-64
2022/11/14 03:26:52;;;;;;;0.47;0.47;;;14.50;93.80;;;;;;4242436;27;20062;-65
2022/11/14 03:29:51;;;;;;;0.88;0.88;;;14.50;93.80;;;;;;4242684;27;20442;-64
2022/11/14 03:32:51;;;;;;;0.20;0.20;;;14.50;93.80;;;;;;4242307;27;20046;-64
2022/11/14 03:35:52;;;;;;;0.25;0.25;;;14.50;93.90;;;;;;4242825;27;20046;-65
2022/11/14 03:38:52;;;;;;;0.60;0.60;;;14.50;93.70;;;;;;4226959;27;20092;-64
2022/11/14 03:41:51;;;;;;;1.38;1.27;;;14.50;93.70;;;;;;4225323;28;20050;-64
2022/11/14 03:44:51;;;;;;;1.85;0.82;;;14.50;93.90;;;;;;4241883;27;20414;-64
2022/11/14 03:47:50;;;;;;;0.30;0.30;;;14.40;93.90;;;;;;4242647;27;20758;-64
2022/11/14 03:50:50;;;;;;;0.63;0.63;;;14.40;93.90;;;;;;4229852;27;20046;-64
2022/11/14 03:53:51;;;;;;;1.38;1.20;;;14.40;93.80;;;;;;4232692;27;20050;-64
2022/11/14 03:56:51;;;;;;;0.65;0.52;;;14.40;93.70;;;;;;4213981;28;20051;-64
2022/11/14 03:59:50;;;;;;;1.50;1.50;;;14.40;93.60;;;;;;4242039;27;20058;-64
2022/11/14 04:02:50;;;;;;;0.00;0.00;;;14.40;93.50;;;;;;4222587;27;20085;-64
2022/11/14 04:05:50;;;;;;;0.30;0.30;;;14.40;93.60;;;;;;4229001;27;20115;-64
2022/11/14 04:08:51;;;;;;;0.68;0.68;;;14.40;93.70;;;;;;4242168;27;20042;-64
2022/11/14 04:11:51;;;;;;;2.58;1.70;;;14.40;93.80;;;;;;4256061;27;20085;-64
2022/11/14 04:14:50;;;;;;;0.65;0.65;;;14.40;93.70;;;;;;4250705;27;20074;-64
2022/11/14 04:17:51;;;;;;;5.78;2.08;;;14.40;93.90;;;;;;4241900;27;20107;-64
2022/11/14 04:20:50;;;;;;;2.65;1.85;;;14.40;93.60;;;;;;4225401;27;20181;-64
2022/11/14 04:23:51;;;;;;;0.20;0.20;;;14.40;93.80;;;;;;4225762;28;20978;-64
2022/11/14 04:26:51;;;;;;;0.57;0.57;;;14.40;93.90;;;;;;4241270;27;20402;-64
2022/11/14 04:29:50;;;;;;;0.82;0.82;;;14.40;93.90;;;;;;4229186;27;20203;-64
2022/11/14 04:32:50;;;;;;;2.35;2.17;;;14.40;93.90;;;;;;4241200;27;20050;-64
2022/11/14 04:35:49;;;;;;;0.77;0.77;;;14.40;93.60;;;;;;4241310;27;20046;-65
2022/11/14 04:38:51;;;;;;;0.00;0.00;;;14.40;93.70;;;;;;4241264;27;20126;-65
2022/11/14 04:41:50;;;;;;;0.30;0.30;;;14.40;94.00;;;;;;4224978;28;20058;-64
2022/11/14 04:44:50;;;;;;;0.65;0.65;;;14.30;93.50;;;;;;4241287;27;20345;-65
2022/11/14 04:47:49;;;;;;;1.10;1.10;;;14.30;93.60;;;;;;4229185;27;20054;-65
2022/11/14 04:50:48;;;;;;;1.85;0.93;;;14.30;93.60;;;;;;4241732;27;20572;-64
2022/11/14 04:53:48;;;;;;;1.98;1.92;;;14.30;93.60;;;;;;4241621;27;20570;-64
2022/11/14 04:56:49;;;;;;;0.20;0.20;;;14.30;93.80;;;;;;4242056;27;20054;-64
2022/11/14 04:59:49;;;;;;;0.60;0.60;;;14.30;93.80;;;;;;4242075;27;20078;-64
2022/11/14 05:02:48;;;;;;;0.08;0.08;;;14.30;93.80;;;;;;4209853;28;20399;-65
2022/11/14 05:05:47;;;;;;;0.20;0.20;;;14.40;93.80;;;;;;4240327;27;20099;-65
2022/11/14 05:08:48;;;;;;;0.20;0.20;;;14.40;93.70;;;;;;4241559;27;20481;-64
2022/11/14 05:11:49;;;;;;;2.70;2.50;;;14.50;93.50;;;;;;4224512;28;20089;-64
2022/11/14 05:14:48;;;;;;;0.85;0.50;;;14.50;93.40;;;;;;4241263;27;20054;-64
2022/11/14 05:17:47;;;;;;;0.63;0.57;;;14.60;93.40;;;;;;4241382;27;20078;-64
2022/11/14 05:20:47;;;;;;;0.03;0.03;;;14.50;93.40;;;;;;4241303;28;20074;-64
2022/11/14 05:23:47;;;;;;;0.00;0.00;;;14.50;93.30;;;;;;4224766;28;20107;-65
2022/11/14 05:26:46;;;;;;;0.40;0.40;;;14.50;93.30;;;;;;4248838;27;20054;-64
2022/11/14 05:29:47;;;;;;;0.30;0.30;;;14.50;93.40;;;;;;4225339;28;20046;-64
2022/11/14 05:32:47;;;;;;;0.00;0.00;;;14.40;93.40;;;;;;4240544;28;20138;-64
2022/11/14 05:35:46;;;;;;;0.10;0.10;;;14.40;93.20;;;;;;4240550;28;20054;-65
2022/11/14 05:38:46;;;;;;;0.00;0.00;;;14.40;93.30;;;;;;4240964;27;20095;-64
2022/11/14 05:41:46;;;;;;;0.50;0.50;;;14.40;93.40;;;;;;4224540;27;20059;-64
2022/11/14 05:44:47;;;;;;;0.40;0.40;;;14.30;93.40;;;;;;4224437;27;20051;-64
2022/11/14 05:47:46;;;;;;;0.27;0.27;;;14.30;93.30;;;;;;4218832;27;20489;-64
2022/11/14 05:50:46;;;;;;;0.00;0.00;;;14.30;93.20;;;;;;4224713;28;20288;-63
2022/11/14 05:53:45;;;;;;;0.90;0.90;;;14.40;93.30;;;;;;4224732;28;20101;-64
2022/11/14 05:56:45;;;;;;;0.68;0.68;;;14.40;93.20;;;;;;4224736;28;20339;-64
2022/11/14 05:59:44;;;;;;;0.28;0.28;;;14.50;93.10;;;;;;4227184;28;20054;-64
2022/11/14 06:02:45;;;;;;;0.08;0.08;;;14.60;92.90;;;;;;4231100;27;20069;-64
2022/11/14 06:05:45;;;;;;;0.57;0.57;;;14.60;92.70;;;;;;4234835;27;20104;-64
2022/11/14 06:08:45;;;;;;;1.08;1.08;;;14.60;92.60;;;;;;4261231;27;20065;-64
2022/11/14 06:11:45;;;;;;;0.20;0.20;;;14.60;92.50;;;;;;4230536;27;20050;-64
2022/11/14 06:14:45;;;;;;;1.05;1.05;;;14.60;92.90;;;;;;4238642;27;20172;-64
2022/11/14 06:17:46;;;;;;;0.30;0.30;;;14.60;92.50;;;;;;4243973;27;20058;-64
2022/11/14 06:20:46;;;;;;;0.30;0.30;;;14.70;92.40;;;;;;4244224;27;20078;-64
2022/11/14 06:23:46;;;;;;;1.00;0.93;;;14.70;92.50;;;;;;4227226;27;20573;-63
2022/11/14 06:26:46;;;;;;;0.80;0.80;;;14.70;92.60;;;;;;4226080;28;20093;-63
2022/11/14 06:29:45;;;;;;;0.32;0.32;;;14.70;92.70;;;;;;4227173;27;20062;-63
2022/11/14 06:32:46;;;;;;;3.33;2.80;;;14.70;92.50;;;;;;4230636;27;20095;-63
2022/11/14 06:35:46;;;;;;;0.10;0.10;;;14.70;92.40;;;;;;4242341;27;20454;-63
2022/11/14 06:38:46;;;;;;;0.35;0.35;;;14.70;92.40;;;;;;4242714;27;20073;-63
2022/11/14 06:41:45;;;;;;;0.00;0.00;;;14.70;92.40;;;;;;4243275;27;20062;-65
2022/11/14 06:44:45;;;;;;;0.52;0.52;;;14.70;92.40;;;;;;4246306;27;20050;-65
2022/11/14 06:47:46;;;;;;;0.55;0.55;;;14.70;92.40;;;;;;4228125;27;20058;-65
2022/11/14 06:50:52;;;;;;;0.10;0.10;;;14.70;92.30;;;;;;4234785;27;20058;-65
2022/11/14 06:53:51;;;;;;;0.85;0.85;;;14.70;92.30;;;;;;4242821;27;20299;-63
2022/11/14 06:56:50;;;;;;;0.47;0.47;;;14.70;92.20;;;;;;4239142;27;20091;-63
2022/11/14 06:59:50;;;;;;;3.58;2.50;;;14.70;92.20;;;;;;4239734;27;20088;-64
2022/11/14 07:02:51;;;;;;;0.30;0.30;;;14.70;92.10;;;;;;4243131;27;20524;-63
2022/11/14 07:05:51;;;;;;;0.40;0.40;;;14.70;92.10;;;;;;4232268;27;20102;-63
2022/11/14 07:08:52;;;;;;;0.15;0.15;;;14.70;92.00;;;;;;4235541;27;20050;-63
2022/11/14 07:11:52;;;;;;;0.00;0.00;;;14.60;92.00;;;;;;4224638;27;20444;-63
2022/11/14 07:14:51;;;;;;;0.15;0.15;;;14.50;92.20;;;;;;4242464;27;20897;-64
2022/11/14 07:17:52;;;;;;;1.48;1.38;;;14.50;92.40;;;;;;4243068;27;20825;-64
2022/11/14 07:20:58;;;;;;;0.30;0.30;;;14.50;92.60;;;;;;4243083;27;20153;-63
2022/11/14 07:23:58;;;;;;;20.27;1.20;;;14.40;92.70;;;;;;4242749;27;20058;-63
2022/11/14 07:26:58;;;;;;;0.00;0.00;;;14.40;93.30;;;;;;4243277;27;20135;-63
2022/11/14 07:29:57;;;;;;;0.70;0.70;;;14.40;93.00;;;;;;4245669;27;20081;-63
2022/11/14 07:32:58;;;;;;;0.57;0.57;;;14.30;93.10;;;;;;4231846;27;20100;-63
2022/11/14 07:35:58;;;;;;;0.00;0.00;;;14.30;93.10;;;;;;4225859;27;20050;-64
2022/11/14 07:38:58;;;;;;;0.10;0.10;;;14.30;93.20;;;;;;4224205;27;20054;-63
2022/11/14 07:41:57;;;;;;;0.20;0.20;;;14.30;93.10;;;;;;4238848;27;20158;-63
2022/11/14 07:44:57;;;;;;;0.13;0.13;;;14.30;93.00;;;;;;4239221;27;20653;-62
2022/11/14 07:47:59;;;;;;;0.00;0.00;;;14.30;92.90;;;;;;4238749;27;20111;-63
2022/11/14 07:51:00;;;;;;;3.45;1.27;;;14.30;93.00;;;;;;4239620;27;20474;-62
2022/11/14 07:53:59;;;;;;;1.85;1.75;;;14.40;93.00;;;;;;4239270;27;20058;-62
2022/11/14 07:56:59;;;;;;;0.20;0.20;;;14.50;92.80;;;;;;4239627;27;20406;-60
2022/11/14 07:59:59;;;;;;;0.73;0.73;;;14.60;93.00;;;;;;4228249;27;20174;-60
2022/11/14 08:03:00;;;;;;;0.00;0.00;;;14.60;92.40;;;;;;4239126;27;20118;-60
2022/11/14 08:06:04;;;;;;;1.17;1.17;;;14.70;92.20;;;;;;4239537;27;20485;-60
2022/11/14 08:09:03;;;;;;;1.42;1.20;;;14.70;92.10;;;;;;4229845;27;20092;-60
2022/11/14 08:12:03;;;;;;;0.20;0.20;;;14.70;91.90;;;;;;4239559;27;20058;-60
2022/11/14 08:15:02;;;;;;;0.60;0.60;;;14.70;91.90;;;;;;4239137;27;20549;-60
2022/11/14 08:18:04;;;;;;;0.65;0.65;;;14.70;91.90;;;;;;4239838;27;20542;-60
2022/11/14 08:21:04;;;;;;;0.10;0.10;;;14.70;91.80;;;;;;4223020;27;20077;-61
2022/11/14 08:24:04;;;;;;;0.25;0.25;;;14.70;91.80;;;;;;4222673;27;20592;-61
2022/11/14 08:27:04;;;;;;;0.00;0.00;;;14.60;91.90;;;;;;4239265;27;20054;-59
2022/11/14 08:30:04;;;;;;;0.45;0.45;;;14.60;91.90;;;;;;4239441;27;20042;-60
2022/11/14 08:33:08;;;;;;;0.10;0.10;;;14.60;92.00;;;;;;4239379;27;20058;-59
2022/11/14 08:36:08;;;;;;;0.60;0.60;;;14.60;92.10;;;;;;4239211;27;20103;-59
2022/11/14 08:39:07;;;;;;;0.10;0.10;;;14.50;92.20;;;;;;4238337;27;20148;-59
2022/11/14 08:42:07;;;;;;;0.98;0.98;;;14.50;92.20;;;;;;4222353;28;20607;-60
2022/11/14 08:45:07;;;;;;;5.93;0.88;;;14.40;92.30;;;;;;4238451;27;20054;-59
2022/11/14 08:48:10;;;;;;;0.70;0.70;;;14.40;92.30;;;;;;4222490;27;20132;-59
2022/11/14 08:51:09;;;;;;;0.40;0.40;;;14.40;92.80;;;;;;4238541;27;20485;-59
2022/11/14 08:54:09;;;;;;;0.65;0.65;;;14.30;92.40;;;;;;4232260;27;20055;-61
2022/11/14 08:57:10;;;;;;;0.00;0.00;;;14.20;92.50;;;;;;4226017;27;20486;-60
2022/11/14 09:00:11;;;;;;;0.10;0.10;;;14.20;92.70;;;;;;4213700;27;20082;-60
2022/11/14 09:03:14;;;;;;;0.20;0.20;;;14.20;92.80;;;;;;4228359;27;20091;-60
2022/11/14 09:06:14;;;;;;;3.20;2.90;;;14.20;92.70;;;;;;4238507;27;20107;-59
2022/11/14 09:09:14;;;;;;;0.82;0.82;;;14.20;92.70;;;;;;4239482;27;20074;-59
2022/11/14 09:12:14;;;;;;;0.22;0.22;;;14.10;92.60;;;;;;4238241;27;20058;-59
2022/11/14 09:15:13;;;;;;;2.85;2.15;;;14.10;92.80;;;;;;4238652;27;20078;-59
2022/11/14 09:18:15;;;;;;;0.32;0.32;;;14.10;93.00;;;;;;4238578;27;20058;-59
2022/11/14 09:21:15;;;;;;;0.43;0.43;;;14.10;92.60;;;;;;4238581;27;20112;-60
2022/11/14 09:24:14;;;;;;;0.63;0.63;;;14.10;92.60;;;;;;4221430;28;20062;-58
2022/11/14 09:27:14;;;;;;;0.93;0.93;;;14.00;92.70;;;;;;4236781;27;20054;-59
2022/11/14 09:30:14;;;;;;;0.00;0.00;;;14.00;92.80;;;;;;4239086;27;20046;-59
2022/11/14 09:33:15;;;;;;;1.67;1.08;;;14.00;93.30;;;;;;4240761;27;20099;-59
2022/11/14 09:36:17;;;;;;;1.20;1.10;;;14.10;92.80;;;;;;4240582;27;20520;-61
2022/11/14 09:39:17;;;;;;;0.52;0.52;;;14.10;92.80;;;;;;4241956;27;20095;-61
2022/11/14 09:42:30;;;;;;;0.82;0.82;;;14.10;92.80;;;;;;4230988;27;20058;-61
2022/11/14 09:45:30;;;;;;;0.50;0.50;;;14.10;92.80;;;;;;4224294;27;20076;-61
2022/11/14 09:48:31;;;;;;;1.75;1.75;;;14.00;92.80;;;;;;4241545;27;20485;-62
2022/11/14 09:51:36;;;;;;;0.10;0.10;;;14.00;92.90;;;;;;4241172;27;20054;-60
2022/11/14 09:54:43;;;;;;;1.25;1.25;;;14.00;92.90;;;;;;4223010;28;20065;-61
2022/11/14 09:57:45;;;;;;;1.27;1.27;;;14.00;92.80;;;;;;4241796;27;20607;-61
2022/11/14 10:00:51;;;;;;;0.30;0.30;;;14.00;92.80;;;;;;4241802;27;20070;-61
2022/11/14 10:03:59;;;;;;;0.00;0.00;;;14.00;92.80;;;;;;4224932;27;20096;-61
2022/11/14 10:07:05;;;;;;;0.57;0.57;;;14.00;92.80;;;;;;4239436;27;20093;-61
2022/11/14 10:10:14;;;;;;;0.28;0.28;;;14.00;92.90;;;;;;4232786;27;20128;-61
2022/11/14 10:13:30;;;;;;;0.20;0.20;;;14.00;92.90;;;;;;4241662;27;20091;-61
2022/11/14 10:16:42;;;;;;;0.20;0.20;;;14.00;92.90;;;;;;4240417;27;20093;-61
2022/11/14 10:19:47;;;;;;;0.20;0.20;;;14.00;92.80;;;;;;4241670;27;20054;-61
2022/11/14 10:23:03;;;;;;;1.40;0.60;;;14.00;92.90;;;;;;4240710;27;20046;-61
2022/11/14 10:26:11;;;;;;;4.55;1.33;;;14.00;92.90;;;;;;4241115;27;20081;-60
2022/11/14 10:29:39;;;;;;;0.15;0.15;;;14.00;92.80;;;;;;4240133;27;20106;-61
2022/11/14 10:33:00;;;;;;;0.03;0.03;;;14.00;92.50;;;;;;4239670;27;20108;-61
2022/11/14 10:36:07;;;;;;;1.55;1.45;;;14.00;92.50;;;;;;4241185;27;20111;-61
2022/11/14 10:39:15;;;;;;;0.65;0.60;;;14.00;92.60;;;;;;4241390;27;20054;-60
2022/11/14 10:42:19;;;;;;;3.95;1.48;;;14.10;92.70;;;;;;4240659;27;20070;-61
2022/11/14 10:45:28;;;;;;;2.15;1.55;;;14.30;92.30;;;;;;4226883;27;20054;-60
2022/11/14 10:48:33;;;;;;;0.35;0.35;;;14.70;91.70;;;;;;4240814;27;20074;-60
2022/11/14 10:51:39;;;;;;;0.55;0.55;;;15.00;91.00;;;;;;4240705;27;20050;-60
2022/11/14 10:54:45;;;;;;;0.90;0.90;;;15.20;90.40;;;;;;4240686;27;20168;-60
2022/11/14 10:57:45;;;;;;;0.50;0.50;;;15.40;90.00;;;;;;4238986;27;20443;-60
2022/11/14 11:00:45;;;;;;;0.28;0.28;;;15.50;89.30;;;;;;4241089;27;20058;-61
2022/11/14 11:03:45;;;;;;;0.32;0.32;;;15.60;88.90;;;;;;4240141;27;20492;-61
2022/11/14 11:06:46;;;;;;;2.38;1.85;;;15.60;88.50;;;;;;4240278;27;20058;-61
2022/11/14 11:13:30;;;;;;;2.45;2.30;;;15.70;88.50;;;;;;4238544;27;20755;-63
2022/11/14 11:16:30;;;;;;;1.30;1.30;;;15.70;87.60;;;;;;4239215;27;20085;-63
2022/11/14 11:19:30;;;;;;;0.22;0.22;;;15.60;87.50;;;;;;4239726;27;20070;-63
2022/11/14 11:22:36;;;;;;;0.52;0.52;;;15.60;87.70;;;;;;4227384;27;20385;-63
2022/11/14 11:25:37;;;;;;;0.10;0.10;;;15.50;87.80;;;;;;4240993;27;20088;-63
2022/11/14 11:28:37;;;;;;;0.73;0.73;;;15.50;88.00;;;;;;4223475;28;20566;-62
2022/11/14 11:31:51;;;;;;;2.92;1.30;;;15.50;88.30;;;;;;4233184;27;20402;-62
2022/11/14 11:34:52;;;;;;;0.25;0.20;;;15.40;88.60;;;;;;4239671;27;20128;-62
2022/11/14 11:37:56;;;;;;;0.20;0.20;;;15.40;89.00;;;;;;4222768;27;20054;-62
2022/11/14 11:41:05;;;;;;;0.43;0.43;;;15.40;89.10;;;;;;4238755;27;20159;-62
2022/11/14 11:44:12;;;;;;;0.68;0.68;;;15.30;89.20;;;;;;4239410;27;20449;-62
2022/11/14 11:47:15;;;;;;;0.95;0.95;;;15.30;89.30;;;;;;4239983;27;20390;-62
2022/11/14 11:50:19;;;;;;;0.80;0.80;;;15.30;89.60;;;;;;4240454;27;20097;-62
2022/11/14 11:53:26;;;;;;;0.35;0.25;;;15.20;89.80;;;;;;4223644;27;20107;-62
2022/11/14 11:56:30;;;;;;;1.05;1.05;;;15.20;89.60;;;;;;4238429;27;20110;-62
2022/11/14 11:59:35;;;;;;;0.20;0.20;;;15.10;89.90;;;;;;4239015;27;20546;-62
2022/11/14 12:02:40;;;;;;;0.25;0.25;;;15.10;89.70;;;;;;4237931;27;20151;-64
2022/11/14 12:05:55;;;;;;;1.25;1.25;;;15.00;90.10;;;;;;4210953;28;20169;-64
2022/11/14 12:09:05;;;;;;;0.80;0.80;;;15.00;90.20;;;;;;4222582;27;20087;-64
2022/11/14 12:12:11;;;;;;;0.05;0.05;;;14.90;90.30;;;;;;4238245;27;20054;-65
2022/11/14 12:15:23;;;;;;;0.50;0.50;;;14.90;90.40;;;;;;4236418;27;20046;-64
2022/11/14 12:18:58;;;;;;;0.57;0.57;;;14.90;90.50;;;;;;4240043;27;20115;-65
2022/11/14 12:22:31;;;;;;;0.68;0.68;;;14.80;90.70;;;;;;4238627;27;20425;-65
2022/11/14 12:25:57;;;;;;;;;;;14.70;90.90;;;;;;4227276;27;20054;-66
2022/11/14 12:29:17;;;;;;;2.10;0.50;;;14.70;91.00;;;;;;4238303;27;19926;-65
2022/11/14 12:32:29;;;;;;;0.00;0.00;;;14.70;91.20;;;;;;4238197;27;20481;-65
2022/11/14 12:35:32;;;;;;;1.02;1.02;;;14.60;91.40;;;;;;4239638;27;20057;-65
2022/11/14 12:38:40;;;;;;;0.43;0.43;;;14.60;91.60;;;;;;4237732;27;20069;-65
2022/11/14 12:41:42;;;;;;;1.60;1.50;;;14.60;91.80;;;;;;4233239;27;20054;-64
2022/11/14 12:44:41;;;;;;;0.00;0.00;;;14.60;91.80;;;;;;4222036;28;20058;-65
2022/11/14 12:48:14;;;;;;;0.57;0.57;;;14.60;92.00;;;;;;4239422;27;20558;-63
2022/11/14 12:51:49;;;;;;;0.30;0.30;;;14.60;92.00;;;;;;4222082;28;20048;-64
2022/11/14 12:54:50;;;;;;;0.30;0.30;;;14.60;92.10;;;;;;4239487;27;20454;-64
2022/11/14 12:57:59;;;;;;;0.35;0.35;;;14.60;92.10;;;;;;4238500;27;20103;-65
2022/11/14 13:01:10;;;;;;;0.60;0.60;;;14.50;92.10;;;;;;4237572;27;20058;-65
2022/11/14 13:04:20;;;;;;;0.55;0.55;;;14.60;92.20;;;;;;4239113;27;20072;-65
2022/11/14 13:07:29;;;;;;;0.40;0.40;;;14.60;92.20;;;;;;4241018;27;20053;-65
2022/11/14 13:10:37;;;;;;;0.32;0.32;;;14.50;92.00;;;;;;4241904;27;20050;-66
2022/11/14 13:24:00;;;;;;;0.85;0.82;;;14.50;92.40;;;;;;4229982;27;20074;-65
2022/11/14 13:27:26;;;;;;;0.00;0.00;;;14.50;92.30;;;;;;4242852;27;20465;-64
2022/11/14 13:31:07;;;;;;;8.68;1.77;;;14.50;92.60;;;;;;4240300;27;20069;-65
2022/11/14 13:34:31;;;;;;;0.00;0.00;;;14.50;92.60;;;;;;4239692;27;20081;-65
2022/11/14 13:37:48;;;;;;;0.28;0.28;;;14.50;92.70;;;;;;4242052;27;20046;-65
2022/11/14 13:40:58;;;;;;;4.57;1.02;;;14.50;92.70;;;;;;4241638;27;20050;-64
2022/11/14 13:44:15;;;;;;;0.20;0.20;;;14.50;92.60;;;;;;4242490;27;20062;-65
2022/11/14 13:47:36;;;;;;;0.10;0.10;;;14.50;93.00;;;;;;4242003;27;20054;-64
2022/11/14 13:50:38;;;;;;;0.88;0.88;;;14.50;92.70;;;;;;4229473;27;20103;-64
2022/11/14 13:53:40;;;;;;;0.75;0.75;;;14.60;92.70;;;;;;4224719;27;20116;-62
2022/11/14 13:56:52;;;;;;;0.63;0.63;;;14.50;92.80;;;;;;4237218;27;20062;-61
2022/11/14 14:00:00;;;;;;;0.00;0.00;;;14.60;92.90;;;;;;4224455;27;20096;-62
2022/11/14 14:03:15;;;;;;;0.05;0.05;;;14.60;92.90;;;;;;4228545;27;20108;-62
2022/11/14 14:06:32;;;;;;;1.05;1.00;;;14.60;92.90;;;;;;4240663;27;20054;-63
2022/11/14 14:09:40;;;;;;;0.82;0.82;;;14.60;92.90;;;;;;4241541;27;20440;-62
2022/11/14 14:12:54;;;;;;;0.30;0.30;;;14.60;92.80;;;;;;4242074;27;20131;-64
2022/11/14 14:16:03;;;;;;;0.20;0.20;;;14.60;92.90;;;;;;4241747;27;20631;-64
2022/11/14 14:19:11;;;;;;;8.30;1.45;;;14.60;92.90;;;;;;4240305;27;20212;-64
2022/11/14 14:22:18;;;;;;;3.03;2.47;;;14.60;92.90;;;;;;4240751;27;20070;-64
2022/11/14 14:25:23;;;;;;;3.05;2.63;;;14.60;93.00;;;;;;4227598;27;20063;-64
2022/11/14 14:28:32;;;;;;;0.10;0.10;;;14.60;93.00;;;;;;4241745;27;20413;-64
2022/11/14 14:31:36;;;;;;;0.57;0.57;;;14.60;93.00;;;;;;4240152;27;20085;-65
2022/11/14 14:34:38;;;;;;;0.47;0.47;;;14.60;92.90;;;;;;4224394;27;20104;-65
2022/11/14 14:37:38;;;;;;;0.75;0.75;;;14.60;93.00;;;;;;4240921;27;20054;-65
2022/11/14 14:40:40;;;;;;;1.10;1.00;;;14.60;93.10;;;;;;4240868;27;20469;-65
2022/11/14 14:43:42;;;;;;;0.13;0.13;;;14.60;93.10;;;;;;4224312;27;20054;-65
2022/11/14 14:46:42;;;;;;;0.57;0.57;;;14.60;93.10;;;;;;4241408;27;20095;-65
2022/11/14 14:49:43;;;;;;;0.05;0.05;;;14.60;93.10;;;;;;4224231;28;20055;-65
2022/11/14 14:52:43;;;;;;;0.20;0.20;;;14.60;93.20;;;;;;4240862;27;20083;-65
2022/11/14 14:55:52;;;;;;;1.35;0.77;;;14.60;93.20;;;;;;4240790;27;20047;-65
2022/11/14 14:58:51;;;;;;;1.85;0.98;;;14.60;93.20;;;;;;4238526;27;20049;-65
2022/11/14 15:01:52;;;;;;;0.13;0.13;;;14.60;93.20;;;;;;4241019;27;20132;-64
2022/11/14 15:04:52;;;;;;;0.10;0.10;;;14.60;93.20;;;;;;4240592;27;20062;-64
2022/11/14 15:07:56;;;;;;;0.60;0.60;;;14.60;93.20;;;;;;4239869;27;20461;-64
2022/11/14 15:10:59;;;;;;;0.38;0.38;;;14.60;93.20;;;;;;4226437;27;20059;-64
2022/11/14 15:14:00;;;;;;;0.90;0.90;;;14.60;93.30;;;;;;4223874;27;20086;-65
2022/11/14 15:17:00;;;;;;;0.00;0.00;;;14.60;93.30;;;;;;4240907;27;20223;-65
2022/11/14 15:20:01;;;;;;;0.65;0.40;;;14.60;93.30;;;;;;4224035;27;20054;-62
2022/11/14 15:23:19;;;;;;;0.85;0.85;;;14.60;93.20;;;;;;4239863;27;20066;-62
2022/11/14 15:26:19;;;;;;;0.28;0.28;;;14.60;93.10;;;;;;4239297;27;20446;-62
2022/11/14 15:29:20;;;;;;;0.32;0.32;;;14.60;93.20;;;;;;4239910;27;20050;-62
2022/11/14 15:32:21;;;;;;;0.80;0.80;;;14.60;93.20;;;;;;4240598;27;20046;-62
2022/11/14 15:35:28;;;;;;;1.00;1.00;;;14.60;93.20;;;;;;4240583;27;20083;-62
2022/11/14 15:38:28;;;;;;;0.25;0.25;;;14.60;93.30;;;;;;4239800;27;20058;-62
2022/11/14 15:41:42;;;;;;;3.10;0.93;;;14.60;93.30;;;;;;4239489;27;20126;-63
2022/11/14 15:44:42;;;;;;;0.38;0.38;;;14.50;93.30;;;;;;4239521;27;20405;-62
2022/11/14 15:47:41;;;;;;;0.28;0.28;;;14.60;93.30;;;;;;4240425;27;20142;-62
2022/11/14 15:50:42;;;;;;;0.00;0.00;;;14.50;93.30;;;;;;4223459;28;20130;-62
2022/11/14 15:53:46;;;;;;;0.20;0.20;;;14.50;93.30;;;;;;4223752;27;20086;-62
2022/11/14 15:56:47;;;;;;;0.10;0.10;;;14.50;93.30;;;;;;4208365;28;20063;-61
2022/11/14 15:59:46;;;;;;;9.13;2.05;;;14.50;93.20;;;;;;4225047;27;20529;-62
2022/11/14 16:02:50;;;;;;;3.92;3.63;;;14.50;93.20;;;;;;4228600;27;20096;-63
2022/11/14 16:05:50;;;;;;;1.10;1.05;;;14.50;93.20;;;;;;4241417;27;20162;-63
2022/11/14 16:08:50;;;;;;;0.00;0.00;;;14.50;93.20;;;;;;4225279;28;20054;-62